CheckWX is a tool to help pilots better visualize weather data.  It is not intended as a substitute for an official pre-flight weather briefing.

18:09:16 UTC

KTVF TAF
Thief River Falls Regional Airport
Thief River Falls, Minnesota, USA
KTVF 272320Z 2800/2824 27017G21KT P6SM SKC FM280500 30005KT P6SM FEW250 FM280700 27005KT P6SM FEW250 FM281800 30016G24KT P6SM BKN045

May-28@
00:00 UTC

May-28 @ 00:00 UTC

May-28@
05:00 UTC

May-28 @ 05:00 UTC

TAF KTVF 272320Z 2800/2824 27017G21KT P6SM SKC

Expired

Wind
  • 270° at 17 KTS
  • {Gusting to 21 KTS
Cloud Levels
  • Clear skies

May-28@
05:00 UTC

May-28 @ 05:00 UTC

May-28@
07:00 UTC

May-28 @ 07:00 UTC

FM280500 30005KT P6SM FEW250

Expired

Wind
  • 300° at 5 KTS
Cloud Levels
  • Few at 25,000' AGL

May-28@
07:00 UTC

May-28 @ 07:00 UTC

May-28@
18:00 UTC

May-28 @ 18:00 UTC

FM280700 27005KT P6SM FEW250

Expired

Wind
  • 270° at 5 KTS
Cloud Levels
  • Few at 25,000' AGL

May-28@
18:00 UTC

May-28 @ 18:00 UTC

May-29@
00:00 UTC

May-29 @ 00:00 UTC

FM281800 30016G24KT P6SM BKN045

From

From Standard forecast or significant change

Wind
  • 300° at 16 KTS
  • {Gusting to 24 KTS
Cloud Levels
  • Broken at 4,500' AGL